KSUT

Cape Fear Regional Jetport / Howie Franklin Field Airport

Oak Island, North Carolina, USA
METAR KSUT 181515Z AUTO 32009KT 10SM CLR M02/M11 A3034 RMK AO2 T10211108
Observed Flight Rules
Jan-18 @ 15:15 UTC (28 minutes ago) Visual Flight Rules
Wind Visibility Clouds
320° at 9 knots 10 miles
  • Clear skies
Temperatures Readings
Current -2°C / 28°F
Dewpoint -11°C / 12°F
Humidity 51%
Altimeter 30.34" Hg
Pressure 1027 hPa
Elevation 8
METAR KSUT 181515Z AUTO 32009KT 10SM CLR M02/M11 A3034 RMK AO2 T10211108
Observed Flight Rules
Jan-18 @ 15:15 UTC
(28 minutes ago)
VFR
Wind Visibility
320° at 9 knots 10 miles
Clouds
  • Clear skies
Temperature Dewpoint
-2°C / 28°F -11°C / 12°F
Humidity Altimeter Pressure
51% 30.34" Hg 1027 hPa